Time;durP1;ratioP1;P1;durP2;ratioP2;P2;SDS_P1;SDS_P2;PMS_P1;PMS_P2;Temp;Humidity;BMP_temperature;BMP_pressure;BME280_temperature;BME280_humidity;BME280_pressure;Samples;Min_cycle;Max_cycle;Signal;HPM_P1;HPM_P2
2022/08/08 00:03:10;;;;;;;3.63;2.83;;;;;17.90;101838.00;;;;5026219;28;20214;-74
2022/08/08 00:06:28;;;;;;;3.33;3.03;;;;;17.60;101843.00;;;;5029027;28;20234;-70
2022/08/08 00:09:25;;;;;;;5.13;3.30;;;;;17.30;101840.00;;;;5028837;28;20304;-71
2022/08/08 00:12:25;;;;;;;4.40;3.20;;;;;17.50;101846.00;;;;5029572;28;20313;-74
2022/08/08 00:15:18;;;;;;;3.50;3.20;;;;;17.30;101842.00;;;;5029126;28;20229;-73
2022/08/08 00:18:34;;;;;;;4.47;3.00;;;;;17.40;101843.00;;;;5029035;28;20229;-73
2022/08/08 00:21:33;;;;;;;4.70;3.07;;;;;17.50;101841.00;;;;5026414;28;20245;-73
2022/08/08 00:24:34;;;;;;;3.57;3.17;;;;;17.40;101842.00;;;;5027611;28;21014;-73
2022/08/08 00:27:22;;;;;;;4.07;3.10;;;;;17.30;101837.00;;;;5030282;28;20226;-75
2022/08/08 00:30:18;;;;;;;5.47;3.33;;;;;17.30;101838.00;;;;5028691;28;20578;-73
2022/08/08 00:33:18;;;;;;;5.77;3.17;;;;;17.20;101846.00;;;;5029699;28;20213;-72
2022/08/08 00:36:21;;;;;;;4.57;3.40;;;;;17.10;101853.00;;;;5029146;28;20237;-73
2022/08/08 00:39:15;;;;;;;6.60;3.30;;;;;17.10;101863.00;;;;5028070;28;20705;-73
2022/08/08 00:42:57;;;;;;;3.53;3.23;;;;;17.00;101853.00;;;;5025985;28;20275;-72
2022/08/08 00:46:45;;;;;;;4.67;3.30;;;;;17.00;101849.00;;;;5028664;28;20603;-75
2022/08/08 00:50:10;;;;;;;3.50;3.10;;;;;16.90;101854.00;;;;5027240;28;20202;-73
2022/08/08 00:53:07;;;;;;;4.00;3.17;;;;;17.00;101847.00;;;;5026630;28;20212;-73
2022/08/08 00:56:26;;;;;;;7.00;3.23;;;;;16.90;101846.00;;;;5025228;28;20230;-73
2022/08/08 00:59:49;;;;;;;4.20;3.00;;;;;16.90;101847.00;;;;5027990;28;20613;-73
2022/08/08 01:03:13;;;;;;;4.30;3.23;;;;;16.80;101851.00;;;;5027934;28;20241;-73
2022/08/08 01:06:58;;;;;;;5.67;3.90;;;;;16.70;101851.00;;;;5028342;28;20378;-74
2022/08/08 01:10:09;;;;;;;4.93;3.43;;;;;16.80;101843.00;;;;5012625;28;20220;-72
2022/08/08 01:13:29;;;;;;;5.40;3.37;;;;;16.70;101840.00;;;;5025652;28;20835;-73
2022/08/08 01:16:55;;;;;;;4.73;3.50;;;;;16.70;101853.00;;;;5025667;28;20326;-72
2022/08/08 01:20:17;;;;;;;5.97;3.00;;;;;16.60;101851.00;;;;5022794;28;20988;-72
2022/08/08 01:23:41;;;;;;;5.60;3.20;;;;;16.70;101840.00;;;;5028039;28;20220;-74
2022/08/08 01:27:06;;;;;;;5.13;3.53;;;;;16.50;101851.00;;;;5024209;28;20229;-73
2022/08/08 01:30:41;;;;;;;7.33;3.83;;;;;16.40;101854.00;;;;5024229;28;20224;-73
2022/08/08 01:34:16;;;;;;;4.70;3.30;;;;;16.30;101840.00;;;;5019440;28;20879;-72
2022/08/08 01:37:54;;;;;;;6.43;3.53;;;;;16.20;101839.00;;;;5003875;28;20244;-73
2022/08/08 01:40:53;;;;;;;5.60;3.50;;;;;16.10;101839.00;;;;5027801;28;20699;-72
2022/08/08 01:43:47;;;;;;;3.63;3.10;;;;;15.90;101832.00;;;;5027729;28;20255;-72
2022/08/08 01:46:46;;;;;;;5.70;3.40;;;;;16.00;101835.00;;;;5026974;28;20597;-76
2022/08/08 01:49:48;;;;;;;4.47;3.47;;;;;15.90;101831.00;;;;5027832;28;20219;-72
2022/08/08 01:52:52;;;;;;;8.17;4.03;;;;;16.00;101840.00;;;;5027948;28;20217;-74
2022/08/08 01:56:03;;;;;;;5.30;3.73;;;;;15.80;101845.00;;;;5024322;28;20873;-73
2022/08/08 01:59:30;;;;;;;4.77;3.40;;;;;15.70;101843.00;;;;5023276;28;20208;-73
2022/08/08 02:02:56;;;;;;;5.00;3.53;;;;;15.70;101833.00;;;;5026654;28;20363;-72
2022/08/08 02:05:51;;;;;;;4.33;3.60;;;;;15.70;101837.00;;;;5027667;28;20301;-71
2022/08/08 02:08:52;;;;;;;6.20;4.03;;;;;15.60;101842.00;;;;5019886;28;20256;-72
2022/08/08 02:11:44;;;;;;;7.57;3.93;;;;;15.60;101839.00;;;;5026677;28;20245;-72
2022/08/08 02:14:50;;;;;;;5.03;4.07;;;;;15.30;101844.00;;;;5027993;28;20214;-71
2022/08/08 02:17:53;;;;;;;4.67;3.60;;;;;15.40;101843.00;;;;5022944;28;20333;-71
2022/08/08 02:22:30;;;;;;;7.03;3.90;;;;;15.30;101834.00;;;;5027233;28;20354;-72
2022/08/08 02:24:06;;;;;;;6.27;3.80;;;;;15.40;101846.00;;;;5024491;28;20217;-71
2022/08/08 02:26:58;;;;;;;5.30;4.13;;;;;15.30;101838.00;;;;5021773;28;20239;-72
2022/08/08 02:30:02;;;;;;;5.10;4.10;;;;;15.30;101840.00;;;;5028868;28;20258;-73
2022/08/08 02:33:13;;;;;;;6.57;4.37;;;;;15.20;101841.00;;;;5027879;28;20217;-71
2022/08/08 02:36:21;;;;;;;4.67;3.37;;;;;15.20;101847.00;;;;5026977;28;20754;-72
2022/08/08 02:39:29;;;;;;;6.87;4.23;;;;;15.10;101843.00;;;;5027303;28;20209;-71
2022/08/08 02:43:18;;;;;;;4.97;4.30;;;;;15.10;101845.00;;;;5025625;28;20243;-72
2022/08/08 02:46:50;;;;;;;5.93;4.13;;;;;15.20;101838.00;;;;5025285;28;20453;-71
2022/08/08 02:50:08;;;;;;;6.03;4.40;;;;;15.20;101837.00;;;;5026399;28;20221;-72
2022/08/08 02:53:24;;;;;;;6.03;4.60;;;;;15.20;101846.00;;;;5029212;28;20209;-70
2022/08/08 02:56:51;;;;;;;9.00;4.90;;;;;15.10;101853.00;;;;5022841;28;20368;-71
2022/08/08 03:00:29;;;;;;;6.63;4.53;;;;;15.10;101845.00;;;;5027221;28;20203;-72
2022/08/08 03:03:57;;;;;;;6.30;3.97;;;;;14.90;101846.00;;;;5003113;28;20234;-73
2022/08/08 03:08:03;;;;;;;6.37;4.50;;;;;14.90;101845.00;;;;5027032;28;20669;-72
2022/08/08 03:11:19;;;;;;;5.43;4.40;;;;;14.80;101856.00;;;;5019550;28;20286;-71
2022/08/08 03:14:51;;;;;;;5.67;4.33;;;;;14.80;101857.00;;;;5024281;28;20624;-73
2022/08/08 03:18:02;;;;;;;6.90;4.40;;;;;14.80;101845.00;;;;5023932;28;20210;-74
2022/08/08 03:20:52;;;;;;;5.90;4.37;;;;;14.70;101845.00;;;;5020795;28;20209;-74
2022/08/08 03:23:39;;;;;;;7.53;4.23;;;;;14.80;101848.00;;;;5026741;28;20876;-74
2022/08/08 03:26:52;;;;;;;6.67;4.40;;;;;14.80;101855.00;;;;5023598;28;20228;-73
2022/08/08 03:29:41;;;;;;;5.53;4.10;;;;;14.70;101851.00;;;;5025667;28;20710;-73
2022/08/08 03:36:14;;;;;;;7.70;4.73;;;;;14.80;101863.00;;;;5012133;28;20237;-71
2022/08/08 03:39:06;;;;;;;6.13;4.83;;;;;14.70;101860.00;;;;5027036;28;20215;-72
2022/08/08 03:42:01;;;;;;;8.30;4.50;;;;;14.70;101864.00;;;;5028845;28;20230;-72
2022/08/08 03:45:16;;;;;;;6.77;4.60;;;;;14.60;101869.00;;;;5026976;28;20276;-74
2022/08/08 03:48:24;;;;;;;7.33;4.63;;;;;14.60;101863.00;;;;5030379;28;20218;-73
2022/08/08 03:51:30;;;;;;;7.87;4.60;;;;;14.60;101859.00;;;;5029955;28;20206;-72
2022/08/08 03:54:38;;;;;;;10.73;5.10;;;;;14.60;101860.00;;;;5029827;28;20209;-72
2022/08/08 03:57:38;;;;;;;8.70;4.87;;;;;14.60;101865.00;;;;5030522;28;20228;-74
2022/08/08 04:00:49;;;;;;;6.67;4.60;;;;;14.60;101870.00;;;;5029531;28;20221;-73
2022/08/08 04:03:49;;;;;;;6.47;4.90;;;;;14.60;101864.00;;;;5029604;28;20727;-71
2022/08/08 04:06:55;;;;;;;5.87;4.70;;;;;14.60;101869.00;;;;5029802;28;20623;-73
2022/08/08 04:09:57;;;;;;;7.37;4.93;;;;;14.50;101874.00;;;;5029707;28;20228;-74
2022/08/08 04:12:51;;;;;;;5.90;4.50;;;;;14.70;101870.00;;;;5029785;28;20224;-73
2022/08/08 04:15:37;;;;;;;7.03;4.87;;;;;14.50;101871.00;;;;5029355;28;20331;-75
2022/08/08 04:18:24;;;;;;;6.53;4.97;;;;;14.40;101865.00;;;;5030561;28;20288;-75
2022/08/08 04:21:11;;;;;;;6.40;4.43;;;;;14.40;101864.00;;;;5025201;28;20308;-75
2022/08/08 04:23:57;;;;;;;7.33;4.63;;;;;14.50;101872.00;;;;5027482;28;20241;-73
2022/08/08 04:27:06;;;;;;;8.93;4.93;;;;;14.50;101876.00;;;;5029303;28;20205;-75
2022/08/08 04:29:55;;;;;;;13.73;4.90;;;;;14.40;101870.00;;;;5026264;28;20706;-76
2022/08/08 04:33:02;;;;;;;8.27;4.77;;;;;14.30;101873.00;;;;5025465;28;20208;-75
2022/08/08 04:35:48;;;;;;;6.33;4.73;;;;;14.40;101877.00;;;;5027841;28;20433;-74
2022/08/08 04:38:36;;;;;;;8.50;4.67;;;;;14.30;101873.00;;;;5027181;28;20274;-73
2022/08/08 04:41:27;;;;;;;6.20;4.87;;;;;14.40;101879.00;;;;5028187;28;20232;-78
2022/08/08 04:44:23;;;;;;;7.40;5.30;;;;;14.40;101890.00;;;;5025448;28;20221;-75
2022/08/08 04:47:12;;;;;;;6.60;4.40;;;;;14.40;101881.00;;;;5025453;28;20356;-74
2022/08/08 04:49:59;;;;;;;9.50;4.77;;;;;14.50;101882.00;;;;5029654;28;20213;-73
2022/08/08 04:52:52;;;;;;;8.27;4.80;;;;;14.50;101896.00;;;;5030540;28;20332;-73
2022/08/08 04:55:50;;;;;;;6.70;4.67;;;;;14.60;101886.00;;;;5028323;28;20275;-74
2022/08/08 04:58:42;;;;;;;7.53;5.07;;;;;14.60;101898.00;;;;5027076;28;20205;-73
2022/08/08 05:01:32;;;;;;;6.63;4.83;;;;;14.70;101887.00;;;;5028164;28;20213;-75
2022/08/08 05:04:33;;;;;;;6.50;4.67;;;;;14.80;101900.00;;;;5027675;28;20333;-74
2022/08/08 05:07:20;;;;;;;8.97;5.33;;;;;14.90;101895.00;;;;5028401;28;20205;-72
2022/08/08 05:10:08;;;;;;;10.00;6.10;;;;;15.00;101893.00;;;;5029180;28;20324;-74
2022/08/08 05:12:58;;;;;;;11.60;6.80;;;;;15.10;101907.00;;;;5028846;28;20197;-74
2022/08/08 05:15:47;;;;;;;10.57;6.73;;;;;15.20;101903.00;;;;5026875;28;20233;-74
2022/08/08 05:18:55;;;;;;;8.40;6.13;;;;;15.30;101902.00;;;;5028267;28;20222;-73
2022/08/08 05:21:43;;;;;;;9.63;6.27;;;;;15.50;101909.00;;;;5028389;28;20208;-74
2022/08/08 05:24:45;;;;;;;10.17;6.17;;;;;15.60;101913.00;;;;5026585;28;20209;-73
2022/08/08 05:27:33;;;;;;;8.03;5.93;;;;;15.70;101915.00;;;;5027423;28;20228;-73
2022/08/08 05:30:29;;;;;;;12.80;6.43;;;;;15.80;101912.00;;;;5026642;28;20276;-74
2022/08/08 05:33:15;;;;;;;11.03;6.40;;;;;15.90;101911.00;;;;5025353;28;20218;-73
2022/08/08 05:36:05;;;;;;;10.67;5.73;;;;;16.00;101907.00;;;;5027444;28;20287;-73
2022/08/08 05:38:52;;;;;;;8.77;5.80;;;;;16.10;101912.00;;;;5027328;28;20566;-74
2022/08/08 05:41:41;;;;;;;8.83;5.97;;;;;16.10;101920.00;;;;5027032;28;20369;-72
2022/08/08 05:44:45;;;;;;;10.93;6.53;;;;;16.30;101914.00;;;;5025736;28;20230;-72
2022/08/08 05:47:35;;;;;;;15.53;6.70;;;;;16.30;101909.00;;;;5025484;28;20290;-72
2022/08/08 05:50:41;;;;;;;9.70;6.80;;;;;16.30;101914.00;;;;5026520;28;20213;-71
2022/08/08 05:53:33;;;;;;;8.27;5.97;;;;;16.50;101912.00;;;;5028267;28;20259;-73
2022/08/08 05:56:41;;;;;;;11.00;5.77;;;;;16.50;101912.00;;;;5026878;28;20239;-71
2022/08/08 05:59:36;;;;;;;10.77;6.47;;;;;16.50;101909.00;;;;5027673;28;20278;-70
2022/08/08 06:05:52;;;;;;;9.80;6.07;;;;;16.60;101908.00;;;;5026549;28;20244;-74
2022/08/08 06:08:50;;;;;;;11.40;6.20;;;;;16.70;101913.00;;;;5028113;28;20686;-70
2022/08/08 06:11:40;;;;;;;8.47;5.83;;;;;16.80;101911.00;;;;5025820;28;20290;-72
2022/08/08 06:14:31;;;;;;;8.57;6.10;;;;;16.80;101911.00;;;;5025639;28;20573;-71
2022/08/08 06:17:21;;;;;;;9.67;5.77;;;;;16.90;101913.00;;;;5024428;28;20208;-71
2022/08/08 06:20:27;;;;;;;11.23;6.40;;;;;17.00;101921.00;;;;5027084;28;20359;-71
2022/08/08 06:23:15;;;;;;;8.10;5.90;;;;;17.00;101923.00;;;;5028106;28;20600;-72
2022/08/08 06:26:05;;;;;;;7.90;6.17;;;;;17.10;101937.00;;;;5026794;28;20231;-71
2022/08/08 06:29:17;;;;;;;11.67;6.63;;;;;17.20;101935.00;;;;5024640;28;20229;-73
2022/08/08 06:32:29;;;;;;;11.20;6.27;;;;;17.30;101936.00;;;;5023751;28;20228;-70
2022/08/08 06:35:17;;;;;;;11.63;6.73;;;;;17.40;101939.00;;;;5026134;28;20276;-73
2022/08/08 06:38:27;;;;;;;8.87;6.37;;;;;17.50;101941.00;;;;5026008;28;20347;-71
2022/08/08 06:41:17;;;;;;;9.20;6.17;;;;;17.40;101941.00;;;;5027596;28;20229;-72
2022/08/08 06:44:10;;;;;;;8.57;5.70;;;;;17.50;101948.00;;;;5020122;28;20732;-72
2022/08/08 06:47:08;;;;;;;9.47;5.77;;;;;17.60;101945.00;;;;5021227;28;20575;-72
2022/08/08 06:49:56;;;;;;;8.77;5.90;;;;;17.70;101955.00;;;;5026500;28;20833;-70
2022/08/08 06:52:45;;;;;;;9.37;6.63;;;;;17.70;101951.00;;;;5025459;28;20417;-70
2022/08/08 06:55:36;;;;;;;9.00;6.10;;;;;17.70;101955.00;;;;5023903;28;20276;-71
2022/08/08 06:58:28;;;;;;;7.87;5.80;;;;;18.00;101956.00;;;;5023738;28;20266;-71
2022/08/08 07:01:18;;;;;;;8.03;5.47;;;;;17.90;101954.00;;;;5025900;28;20705;-71
2022/08/08 07:04:32;;;;;;;11.07;6.43;;;;;17.90;101951.00;;;;5024130;28;20241;-70
2022/08/08 07:07:41;;;;;;;10.40;5.83;;;;;18.00;101955.00;;;;5030135;28;20221;-72
2022/08/08 07:10:35;;;;;;;13.60;6.40;;;;;18.10;101960.00;;;;5023684;28;20299;-71
2022/08/08 07:13:30;;;;;;;10.13;6.33;;;;;18.20;101966.00;;;;5025192;28;20859;-73
2022/08/08 07:16:23;;;;;;;7.43;5.33;;;;;18.30;101965.00;;;;5029775;28;20300;-71
2022/08/08 07:19:30;;;;;;;7.83;5.80;;;;;18.40;101967.00;;;;5026379;28;20213;-71
2022/08/08 07:22:23;;;;;;;6.73;5.43;;;;;18.60;101965.00;;;;5028759;28;20328;-69
2022/08/08 07:25:11;;;;;;;10.47;6.57;;;;;18.50;101967.00;;;;5027736;28;20666;-70
2022/08/08 07:28:08;;;;;;;9.63;6.20;;;;;18.70;101966.00;;;;5028862;28;20787;-70
2022/08/08 07:31:05;;;;;;;11.47;5.87;;;;;18.60;101968.00;;;;5027103;28;20341;-70
2022/08/08 07:33:58;;;;;;;8.50;6.13;;;;;18.80;101972.00;;;;5030306;28;20209;-70
2022/08/08 07:36:49;;;;;;;9.63;5.20;;;;;18.80;101973.00;;;;5030514;28;20229;-70
2022/08/08 07:39:36;;;;;;;7.67;5.20;;;;;19.00;101969.00;;;;5030415;28;20329;-70
2022/08/08 07:42:44;;;;;;;6.27;5.03;;;;;19.10;101974.00;;;;5030119;28;20311;-70
2022/08/08 07:45:30;;;;;;;6.03;4.67;;;;;19.30;101971.00;;;;5030449;28;20236;-70
2022/08/08 07:48:36;;;;;;;9.47;5.57;;;;;19.40;101979.00;;;;5029916;28;20225;-70
2022/08/08 07:51:25;;;;;;;10.13;6.10;;;;;19.80;101978.00;;;;5030002;28;20757;-71
2022/08/08 07:54:34;;;;;;;6.40;4.80;;;;;19.70;101983.00;;;;5027849;28;20341;-71
2022/08/08 07:57:24;;;;;;;9.03;5.40;;;;;20.10;101984.00;;;;5025428;28;20303;-70
2022/08/08 08:00:13;;;;;;;6.27;5.10;;;;;20.10;101986.00;;;;5024189;28;20217;-71
2022/08/08 08:03:05;;;;;;;6.97;4.80;;;;;20.20;101992.00;;;;5030569;28;20209;-71
2022/08/08 08:06:00;;;;;;;6.97;5.00;;;;;20.20;101990.00;;;;5025610;28;20293;-72
2022/08/08 08:08:54;;;;;;;6.57;4.80;;;;;20.10;101989.00;;;;5028657;28;20206;-69
2022/08/08 08:11:44;;;;;;;7.10;4.90;;;;;20.30;101987.00;;;;5028429;28;20296;-71
2022/08/08 08:14:47;;;;;;;6.87;4.20;;;;;20.30;101993.00;;;;5024970;28;20221;-71
2022/08/08 08:17:38;;;;;;;5.73;4.07;;;;;20.50;101988.00;;;;5027966;28;20279;-73
2022/08/08 08:20:35;;;;;;;7.93;4.00;;;;;20.50;101986.00;;;;5027162;28;20280;-72
2022/08/08 08:23:21;;;;;;;7.80;4.30;;;;;20.60;101988.00;;;;5027878;28;20661;-71
2022/08/08 08:26:14;;;;;;;6.80;3.70;;;;;20.90;101991.00;;;;5022236;28;20256;-73
2022/08/08 08:29:12;;;;;;;5.87;4.00;;;;;21.20;101998.00;;;;5027343;28;20218;-71
2022/08/08 08:32:05;;;;;;;6.90;4.00;;;;;21.10;101993.00;;;;5029099;28;20318;-70
2022/08/08 08:34:54;;;;;;;5.10;3.40;;;;;21.40;101986.00;;;;5028535;28;20210;-67
2022/08/08 08:37:42;;;;;;;4.27;3.47;;;;;21.60;101988.00;;;;5028189;28;20802;-70
2022/08/08 08:40:49;;;;;;;6.10;3.83;;;;;21.80;101984.00;;;;5026274;28;20210;-71
2022/08/08 08:43:39;;;;;;;7.20;3.40;;;;;21.70;101990.00;;;;5025940;28;20222;-71
2022/08/08 08:46:28;;;;;;;7.07;3.90;;;;;22.00;101988.00;;;;5027543;28;20240;-73
2022/08/08 08:49:15;;;;;;;7.63;4.30;;;;;22.10;101983.00;;;;5026916;28;20254;-69
2022/08/08 08:52:03;;;;;;;6.40;3.70;;;;;22.10;101979.00;;;;5027204;28;20247;-70
2022/08/08 08:54:55;;;;;;;5.27;3.20;;;;;22.30;101990.00;;;;5026707;28;20279;-69
2022/08/08 08:57:44;;;;;;;5.07;3.47;;;;;22.20;101998.00;;;;5026097;28;20727;-70
2022/08/08 09:00:35;;;;;;;3.83;3.40;;;;;22.40;101992.00;;;;5024945;28;20576;-69
2022/08/08 09:03:44;;;;;;;5.80;3.53;;;;;22.50;101995.00;;;;5026372;28;20356;-68
2022/08/08 09:06:39;;;;;;;4.23;3.50;;;;;22.60;101984.00;;;;5023326;28;20234;-70
2022/08/08 09:09:38;;;;;;;4.87;3.20;;;;;22.70;101989.00;;;;5029162;28;20647;-69
2022/08/08 09:12:35;;;;;;;5.50;3.50;;;;;22.70;101995.00;;;;5027726;28;20216;-71
2022/08/08 09:15:21;;;;;;;4.20;3.07;;;;;22.70;101991.00;;;;5025629;28;20327;-71
2022/08/08 09:18:29;;;;;;;3.73;3.10;;;;;22.80;101999.00;;;;5026998;28;20753;-70
2022/08/08 09:21:16;;;;;;;8.60;3.23;;;;;22.90;102002.00;;;;5028485;28;20293;-72
2022/08/08 09:24:24;;;;;;;6.37;3.40;;;;;23.30;101994.00;;;;5025359;28;20231;-69
2022/08/08 09:27:12;;;;;;;5.83;3.03;;;;;23.20;101995.00;;;;5027772;28;20209;-70
2022/08/08 09:30:18;;;;;;;4.63;3.40;;;;;23.20;101994.00;;;;5028748;28;20336;-70
2022/08/08 09:33:10;;;;;;;3.80;3.10;;;;;23.40;101995.00;;;;5022002;28;20218;-70
2022/08/08 09:36:22;;;;;;;6.13;3.53;;;;;23.50;101996.00;;;;5025858;28;20253;-73
2022/08/08 09:39:14;;;;;;;4.40;3.47;;;;;23.70;101988.00;;;;5024054;28;20205;-70
2022/08/08 09:42:05;;;;;;;5.63;3.70;;;;;23.60;101991.00;;;;5026825;28;20360;-71
2022/08/08 09:45:09;;;;;;;4.33;3.30;;;;;23.90;101995.00;;;;5027266;28;21054;-70
2022/08/08 09:48:17;;;;;;;3.87;3.43;;;;;23.80;101992.00;;;;5025910;28;20213;-71
2022/08/08 09:51:17;;;;;;;7.73;3.60;;;;;23.80;102000.00;;;;5026724;28;20217;-71
2022/08/08 09:54:09;;;;;;;6.60;3.53;;;;;23.70;101996.00;;;;5026863;28;20216;-71
2022/08/08 09:57:08;;;;;;;5.37;3.60;;;;;23.90;101997.00;;;;5018552;28;20218;-71
2022/08/08 10:00:08;;;;;;;4.53;3.50;;;;;23.90;101998.00;;;;5023845;28;20352;-70
2022/08/08 10:03:16;;;;;;;7.23;3.77;;;;;23.90;101996.00;;;;5022433;28;20675;-70
2022/08/08 10:06:15;;;;;;;5.93;3.90;;;;;24.10;102004.00;;;;5025768;28;20234;-69
2022/08/08 10:09:02;;;;;;;4.73;3.27;;;;;24.20;102006.00;;;;5023455;28;20213;-66
2022/08/08 10:11:50;;;;;;;3.97;3.50;;;;;24.20;102007.00;;;;5027217;28;20209;-67
2022/08/08 10:15:00;;;;;;;135.93;69.73;;;;;24.50;102004.00;;;;5026052;28;20213;-71
2022/08/08 10:17:47;;;;;;;82.77;39.90;;;;;24.40;101999.00;;;;5023861;28;20206;-65
2022/08/08 10:21:00;;;;;;;9.40;5.90;;;;;24.80;101997.00;;;;5026810;28;20212;-69
2022/08/08 10:24:08;;;;;;;9.13;6.87;;;;;24.70;101988.00;;;;5026092;28;20244;-68
2022/08/08 10:27:16;;;;;;;6.23;4.53;;;;;24.90;101994.00;;;;5027537;28;20629;-68
2022/08/08 10:30:06;;;;;;;29.80;21.13;;;;;24.80;101994.00;;;;5030205;28;20551;-70
2022/08/08 10:33:02;;;;;;;13.00;6.87;;;;;25.00;101986.00;;;;5022959;28;20205;-71
2022/08/08 10:35:54;;;;;;;4.87;3.87;;;;;24.90;101993.00;;;;5032847;28;20244;-71
2022/08/08 10:39:03;;;;;;;5.70;3.50;;;;;25.10;101997.00;;;;5020412;28;20729;-70
2022/08/08 10:41:59;;;;;;;4.73;3.40;;;;;25.30;101998.00;;;;5027241;28;20291;-69
2022/08/08 10:45:05;;;;;;;5.13;3.43;;;;;25.20;101996.00;;;;5026298;28;20772;-72
2022/08/08 10:47:56;;;;;;;5.00;3.47;;;;;25.50;101994.00;;;;5028087;28;20216;-70
2022/08/08 10:50:43;;;;;;;6.30;3.50;;;;;25.80;102002.00;;;;5029421;28;20260;-71
2022/08/08 10:53:35;;;;;;;4.47;3.37;;;;;25.80;101996.00;;;;5035206;28;20205;-72
2022/08/08 10:56:41;;;;;;;4.63;3.67;;;;;25.70;101995.00;;;;5030042;28;20233;-70
2022/08/08 10:59:29;;;;;;;7.27;3.63;;;;;25.90;102004.00;;;;5031588;28;20284;-69
2022/08/08 11:02:24;;;;;;;7.40;3.50;;;;;25.60;101996.00;;;;5028211;28;20214;-70
2022/08/08 11:05:12;;;;;;;6.33;3.50;;;;;25.80;102011.00;;;;5026466;28;20241;-68
2022/08/08 11:08:03;;;;;;;6.93;3.47;;;;;25.20;101990.00;;;;5031460;28;20214;-69
2022/08/08 11:11:11;;;;;;;3.77;3.17;;;;;25.60;101994.00;;;;5033529;28;20217;-69
2022/08/08 11:14:17;;;;;;;34.67;19.93;;;;;26.10;101991.00;;;;5026710;28;20242;-72
2022/08/08 11:17:11;;;;;;;10.57;7.43;;;;;26.00;101999.00;;;;5029143;28;20269;-69
2022/08/08 11:20:03;;;;;;;12.77;9.63;;;;;26.30;101997.00;;;;5022548;28;20209;-73
2022/08/08 11:22:59;;;;;;;7.57;4.57;;;;;26.10;101994.00;;;;5031251;28;20756;-70
2022/08/08 11:25:52;;;;;;;5.73;3.40;;;;;26.40;101990.00;;;;5030410;28;20283;-71
2022/08/08 11:28:45;;;;;;;3.87;3.43;;;;;26.20;101995.00;;;;5035599;28;20736;-70
2022/08/08 11:31:36;;;;;;;4.37;3.60;;;;;26.50;101990.00;;;;5029949;28;20221;-70
2022/08/08 11:34:36;;;;;;;5.18;3.65;;;;;26.80;101990.00;;;;5026723;28;20700;-72
2022/08/08 11:37:43;;;;;;;4.40;3.33;;;;;26.30;101987.00;;;;5028187;28;20206;-68
2022/08/08 11:40:51;;;;;;;4.32;3.20;;;;;26.80;101992.00;;;;5029041;28;20213;-69
2022/08/08 11:43:39;;;;;;;4.30;3.53;;;;;26.50;101992.00;;;;5027961;28;20221;-68
2022/08/08 11:46:28;;;;;;;7.17;3.60;;;;;26.80;101992.00;;;;5028073;28;20800;-70
2022/08/08 11:49:17;;;;;;;3.87;3.47;;;;;27.10;101988.00;;;;5030496;28;20221;-69
2022/08/08 11:52:05;;;;;;;5.60;3.25;;;;;27.10;101986.00;;;;5030531;28;20213;-70
2022/08/08 11:54:53;;;;;;;3.88;3.20;;;;;27.30;101986.00;;;;5029268;28;20210;-69
2022/08/08 11:57:40;;;;;;;5.68;3.25;;;;;27.40;101982.00;;;;5027688;28;20684;-69
2022/08/08 12:00:28;;;;;;;4.47;3.22;;;;;27.10;101971.00;;;;5030307;28;20698;-70
2022/08/08 12:03:21;;;;;;;4.38;3.10;;;;;27.10;101977.00;;;;5024258;28;20210;-71
2022/08/08 12:06:12;;;;;;;4.10;3.25;;;;;26.20;101975.00;;;;5028679;28;20604;-70
2022/08/08 12:09:07;;;;;;;4.00;3.20;;;;;26.30;101973.00;;;;5029139;28;20217;-69
2022/08/08 12:11:55;;;;;;;3.25;2.95;;;;;26.80;101969.00;;;;5029587;28;20209;-66
2022/08/08 12:14:41;;;;;;;7.95;3.08;;;;;27.10;101969.00;;;;5026310;28;20288;-70
2022/08/08 12:17:41;;;;;;;4.60;3.10;;;;;27.40;101965.00;;;;5029416;28;20237;-70
2022/08/08 12:20:40;;;;;;;6.82;3.20;;;;;27.40;101977.00;;;;5027568;28;20785;-67
2022/08/08 12:23:29;;;;;;;5.60;3.50;;;;;27.60;101977.00;;;;5029764;28;20217;-70
2022/08/08 12:26:37;;;;;;;23.42;13.85;;;;;26.80;101984.00;;;;5029686;28;20328;-68
2022/08/08 12:29:36;;;;;;;28.73;16.03;;;;;26.80;101972.00;;;;5026296;28;20217;-68
2022/08/08 12:32:27;;;;;;;10.68;6.60;;;;;27.20;101968.00;;;;5025461;28;20221;-68
2022/08/08 12:35:21;;;;;;;10.70;4.90;;;;;27.40;101975.00;;;;5027368;28;20685;-66
2022/08/08 12:38:08;;;;;;;4.78;3.60;;;;;27.40;101979.00;;;;5023595;28;20217;-69
2022/08/08 12:41:12;;;;;;;4.22;3.53;;;;;27.60;101973.00;;;;5029598;28;20201;-74
2022/08/08 12:44:29;;;;;;;5.32;3.03;;;;;27.90;101971.00;;;;5024305;28;20205;-71
2022/08/08 12:47:27;;;;;;;3.50;2.67;;;;;28.10;101971.00;;;;5029478;28;20237;-68
2022/08/08 12:50:41;;;;;;;6.10;3.03;;;;;28.20;101979.00;;;;5026120;28;20599;-67
2022/08/08 12:53:33;;;;;;;3.20;2.90;;;;;28.10;101969.00;;;;5030039;28;20700;-66
2022/08/08 12:56:33;;;;;;;4.28;2.70;;;;;28.50;101957.00;;;;5022866;28;20238;-66
2022/08/08 12:59:21;;;;;;;5.13;2.88;;;;;28.50;101972.00;;;;5026661;28;20226;-70
2022/08/08 13:02:32;;;;;;;2.90;2.60;;;;;28.60;101969.00;;;;5025268;28;20256;-73
2022/08/08 13:05:23;;;;;;;4.55;2.63;;;;;28.90;101961.00;;;;5023236;28;20315;-70
2022/08/08 13:08:42;;;;;;;4.35;2.63;;;;;29.00;101964.00;;;;5028276;28;20690;-70
2022/08/08 13:11:39;;;;;;;3.67;2.60;;;;;29.00;101971.00;;;;5027382;28;20718;-70
2022/08/08 13:14:48;;;;;;;3.72;2.50;;;;;28.90;101966.00;;;;5027615;28;20210;-70
2022/08/08 13:17:40;;;;;;;7.82;2.70;;;;;28.00;101968.00;;;;5029713;28;20854;-68
2022/08/08 13:20:47;;;;;;;5.90;2.88;;;;;27.00;101954.00;;;;5027257;28;20233;-68
2022/08/08 13:23:34;;;;;;;4.13;3.30;;;;;27.50;101969.00;;;;5027373;28;20361;-69
2022/08/08 13:26:30;;;;;;;3.03;2.42;;;;;28.00;101966.00;;;;5027968;28;20316;-68
2022/08/08 13:29:17;;;;;;;4.03;2.45;;;;;27.90;101960.00;;;;5027927;28;20604;-70
2022/08/08 13:32:06;;;;;;;4.45;2.33;;;;;27.60;101955.00;;;;5024655;28;20217;-69
2022/08/08 13:34:58;;;;;;;3.85;2.70;;;;;28.10;101965.00;;;;5026431;28;20241;-68
2022/08/08 13:37:46;;;;;;;4.45;2.38;;;;;28.50;101967.00;;;;5027234;28;20217;-70
2022/08/08 13:40:52;;;;;;;4.03;2.45;;;;;27.30;101962.00;;;;5027238;28;20210;-69
2022/08/08 13:43:38;;;;;;;2.40;2.20;;;;;27.70;101957.00;;;;5025192;28;20762;-69
2022/08/08 13:46:27;;;;;;;3.38;2.35;;;;;28.40;101955.00;;;;5026087;28;20808;-69
2022/08/08 13:49:16;;;;;;;3.92;2.55;;;;;28.30;101943.00;;;;5027085;28;20268;-68
2022/08/08 13:52:24;;;;;;;3.25;2.17;;;;;28.70;101943.00;;;;5024735;28;20240;-70
2022/08/08 13:55:26;;;;;;;5.05;2.38;;;;;28.90;101948.00;;;;5024717;28;20624;-69
2022/08/08 13:58:18;;;;;;;3.88;2.45;;;;;28.80;101949.00;;;;5025277;28;20345;-70
2022/08/08 14:01:12;;;;;;;3.33;2.45;;;;;29.10;101948.00;;;;5024561;28;20209;-67
2022/08/08 14:04:02;;;;;;;3.03;2.35;;;;;29.10;101951.00;;;;5026434;28;20217;-68
2022/08/08 14:06:52;;;;;;;3.53;2.40;;;;;29.00;101943.00;;;;5026686;28;20301;-69
2022/08/08 14:09:43;;;;;;;2.75;2.30;;;;;29.30;101945.00;;;;5026476;28;20213;-70
2022/08/08 14:12:51;;;;;;;4.38;2.60;;;;;29.30;101943.00;;;;5027415;28;20268;-68
2022/08/08 14:15:39;;;;;;;2.65;2.13;;;;;29.20;101934.00;;;;5025550;28;20263;-68
2022/08/08 14:18:35;;;;;;;4.85;2.30;;;;;29.30;101935.00;;;;5028030;28;20339;-70
2022/08/08 14:21:41;;;;;;;2.83;2.17;;;;;29.40;101939.00;;;;5024847;28;20217;-67
2022/08/08 14:24:34;;;;;;;2.85;2.25;;;;;29.70;101941.00;;;;5024121;28;20229;-68
2022/08/08 14:27:28;;;;;;;2.78;2.30;;;;;30.00;101949.00;;;;5026727;28;20607;-67
2022/08/08 14:30:16;;;;;;;4.95;2.63;;;;;29.70;101959.00;;;;5026597;28;20240;-67
2022/08/08 14:33:04;;;;;;;4.05;2.40;;;;;29.90;101943.00;;;;5027989;28;20216;-68
2022/08/08 14:36:00;;;;;;;2.60;2.20;;;;;30.10;101935.00;;;;5027133;28;20233;-67
2022/08/08 14:38:50;;;;;;;2.30;2.10;;;;;30.00;101935.00;;;;5027481;28;20210;-66
2022/08/08 14:41:46;;;;;;;3.05;2.10;;;;;30.30;101930.00;;;;5025669;28;20206;-67
2022/08/08 14:44:41;;;;;;;2.38;2.15;;;;;30.20;101930.00;;;;5026979;28;20236;-68
2022/08/08 14:47:28;;;;;;;5.10;2.28;;;;;30.30;101940.00;;;;5026799;28;20836;-67
2022/08/08 14:50:25;;;;;;;2.72;2.30;;;;;30.10;101931.00;;;;5027536;28;20206;-68
2022/08/08 14:53:35;;;;;;;2.65;1.92;;;;;31.10;101949.00;;;;5018873;28;20212;-67